Craig, Texas
Current Conditions -  °F | °C
As of 4:35 PM on Sunday 23 Nov 2014 (Local Time) from KRFI Reporting Station
Clear Clear  
Wind Chill: 73°   Ceiling: Unl
Heat Index: 73°   Visibility: 10mi
Dew Point: 47°   Wind: 7mph
Humidity: 39%   Direction: 230°SW
Pressure: 29.47"   Gusts: NA
Location:  32.1449°N, 94.7416°W
Report Text: KRFI 232235Z AUTO 23006KT 10SM CLR 23/08 A2947 RMK AO2 T02280083
Loading
Personal Weather Stations






























Interactive Weather Map New forecast layout! Learn more

10-Day Weather Forecast

Advertisements
Track Severe Weather on mobile